createdAt,value
2018-01-13T00:01:16.702Z,21.03
2018-01-13T00:03:42.643Z,23.40
2018-01-13T00:06:08.559Z,23.03
2018-01-13T00:08:34.474Z,24.20
2018-01-13T00:11:00.406Z,23.13
2018-01-13T00:13:26.395Z,24.67
2018-01-13T00:15:52.284Z,25.07
2018-01-13T00:18:18.192Z,21.50
2018-01-13T00:20:44.886Z,22.40
2018-01-13T00:23:10.817Z,22.23
2018-01-13T00:25:36.716Z,23.03
2018-01-13T00:28:02.651Z,24.20
2018-01-13T00:30:28.557Z,22.87
2018-01-13T00:32:54.480Z,23.30
2018-01-13T00:35:20.430Z,23.23
2018-01-13T00:37:46.348Z,21.90
2018-01-13T00:40:12.275Z,24.07
2018-01-13T00:42:38.266Z,22.67
2018-01-13T00:45:04.239Z,24.40
2018-01-13T00:47:30.210Z,22.10
2018-01-13T00:49:56.136Z,24.37
2018-01-13T00:52:22.049Z,22.73
2018-01-13T00:54:47.976Z,23.43
2018-01-13T00:57:13.872Z,23.60
2018-01-13T00:59:40.029Z,23.37
2018-01-13T01:02:05.938Z,22.30
2018-01-13T01:04:31.869Z,25.20
2018-01-13T01:06:57.810Z,23.03
2018-01-13T01:09:23.820Z,23.07
2018-01-13T01:11:50.545Z,24.77
2018-01-13T01:14:16.558Z,23.93
2018-01-13T01:16:42.897Z,24.80
2018-01-13T01:19:08.850Z,26.20
2018-01-13T01:21:34.778Z,54.70
2018-01-13T01:24:01.463Z,29.33
2018-01-13T01:26:27.391Z,40.77
2018-01-13T01:28:53.328Z,32.73
2018-01-13T01:31:19.279Z,34.60
2018-01-13T01:33:46.415Z,24.70
2018-01-13T01:36:13.270Z,24.93
2018-01-13T01:38:40.304Z,23.90
2018-01-13T01:41:06.241Z,55.00
2018-01-13T01:43:32.901Z,41.53
2018-01-13T01:45:58.824Z,37.70
2018-01-13T01:48:24.769Z,25.27
2018-01-13T01:50:50.709Z,23.00
2018-01-13T01:53:16.670Z,24.63
2018-01-13T01:55:42.603Z,24.83
2018-01-13T01:58:08.554Z,23.40
2018-01-13T02:00:34.626Z,25.20
2018-01-13T02:03:00.550Z,24.07
2018-01-13T02:05:26.471Z,27.23
2018-01-13T02:07:52.373Z,23.80
2018-01-13T02:10:19.198Z,23.43
2018-01-13T02:12:45.112Z,24.40
2018-01-13T02:15:11.074Z,24.40
2018-01-13T02:17:37.022Z,24.10
2018-01-13T02:20:02.998Z,23.83
2018-01-13T02:22:29.643Z,24.83
2018-01-13T02:24:55.639Z,23.63
2018-01-13T02:27:21.595Z,23.80
2018-01-13T02:29:47.491Z,25.10
2018-01-13T02:32:13.429Z,24.27
2018-01-13T02:34:39.358Z,24.13
2018-01-13T02:37:05.307Z,23.23
2018-01-13T02:39:31.238Z,22.77
2018-01-13T02:41:57.217Z,24.63
2018-01-13T02:44:23.153Z,23.80
2018-01-13T02:46:49.998Z,22.90
2018-01-13T02:49:16.649Z,24.80
2018-01-13T02:51:42.602Z,23.57
2018-01-13T02:54:08.521Z,24.50
2018-01-13T02:56:34.454Z,22.87
2018-01-13T02:59:01.115Z,25.47
2018-01-13T03:01:27.044Z,24.80
2018-01-13T03:03:52.953Z,25.83
2018-01-13T03:06:18.898Z,25.77
2018-01-13T03:08:44.806Z,26.17
2018-01-13T03:11:10.739Z,23.90
2018-01-13T03:13:36.670Z,23.03
2018-01-13T03:16:02.681Z,22.83
2018-01-13T03:18:28.590Z,22.37
2018-01-13T03:20:55.442Z,23.97
2018-01-13T03:23:21.396Z,21.80
2018-01-13T03:25:47.452Z,25.37
2018-01-13T03:28:14.114Z,23.37
2018-01-13T03:30:40.036Z,22.80
2018-01-13T03:33:05.956Z,23.20
2018-01-13T03:35:31.980Z,22.90
2018-01-13T03:37:57.899Z,21.37
2018-01-13T03:40:23.794Z,21.07
2018-01-13T03:42:50.458Z,20.60
2018-01-13T03:45:17.143Z,22.80
2018-01-13T03:47:43.069Z,21.93
2018-01-13T03:50:08.991Z,24.00
2018-01-13T03:52:34.928Z,20.77
2018-01-13T03:55:01.578Z,21.63
2018-01-13T03:57:27.720Z,23.33
2018-01-13T03:59:53.671Z,20.40
2018-01-13T04:02:19.649Z,21.77
2018-01-13T04:04:45.590Z,22.47
2018-01-13T04:07:11.513Z,24.03
2018-01-13T04:09:37.462Z,20.30
2018-01-13T04:12:03.400Z,21.30
2018-01-13T04:14:29.324Z,22.57
2018-01-13T04:16:55.242Z,21.17
2018-01-13T04:19:22.047Z,22.37
2018-01-13T04:21:47.962Z,23.63
2018-01-13T04:24:13.989Z,21.90
2018-01-13T04:26:40.646Z,22.20
2018-01-13T04:29:06.806Z,19.83
2018-01-13T04:31:32.809Z,21.80
2018-01-13T04:33:58.776Z,20.87
2018-01-13T04:36:24.723Z,20.73
2018-01-13T04:38:50.670Z,20.10
2018-01-13T04:41:16.588Z,21.27
2018-01-13T04:43:42.503Z,21.17
2018-01-13T04:46:08.434Z,21.07
2018-01-13T04:48:34.883Z,20.60
2018-01-13T04:51:01.581Z,19.80
2018-01-13T04:53:27.514Z,19.80
2018-01-13T04:55:53.431Z,20.70
2018-01-13T04:58:20.075Z,19.90
2018-01-13T05:00:46.002Z,22.10
2018-01-13T05:03:11.931Z,18.90
2018-01-13T05:05:37.826Z,22.63
2018-01-13T05:08:03.723Z,20.00
2018-01-13T05:10:29.738Z,19.93
2018-01-13T05:12:55.648Z,19.43
2018-01-13T05:15:21.610Z,18.27
2018-01-13T05:17:47.539Z,20.53
2018-01-13T05:20:13.473Z,18.10
2018-01-13T05:22:39.683Z,19.03
2018-01-13T05:25:05.615Z,21.20
2018-01-13T05:27:31.540Z,20.43
2018-01-13T05:29:57.492Z,21.23
2018-01-13T05:32:23.479Z,19.40
2018-01-13T05:34:49.408Z,19.53
2018-01-13T05:37:15.367Z,23.53
2018-01-13T05:39:41.349Z,21.73
2018-01-13T05:42:07.288Z,23.50
2018-01-13T05:44:33.226Z,21.50
2018-01-13T05:46:59.147Z,26.00
2018-01-13T05:49:25.116Z,25.40
2018-01-13T05:51:51.069Z,22.90
2018-01-13T05:54:17.738Z,23.00
2018-01-13T05:56:43.653Z,23.20
2018-01-13T05:59:09.726Z,21.10
2018-01-13T06:01:35.677Z,23.80
2018-01-13T06:04:02.430Z,22.13
2018-01-13T06:06:28.376Z,21.60
2018-01-13T06:08:54.326Z,26.20
2018-01-13T06:11:20.235Z,21.70
2018-01-13T06:13:46.156Z,22.47
2018-01-13T06:16:12.079Z,21.60
2018-01-13T06:18:38.114Z,22.23
2018-01-13T06:21:04.074Z,21.67
2018-01-13T06:23:29.998Z,22.40
2018-01-13T06:25:55.923Z,21.87
2018-01-13T06:28:21.884Z,21.87
2018-01-13T06:30:47.810Z,20.90
2018-01-13T06:33:13.741Z,20.90
2018-01-13T06:35:39.646Z,20.37
2018-01-13T06:38:05.558Z,19.63
2018-01-13T06:40:31.459Z,22.80
2018-01-13T06:42:58.136Z,24.20
2018-01-13T06:45:24.807Z,20.53
2018-01-13T06:47:50.728Z,23.13
2018-01-13T06:50:16.618Z,22.80
2018-01-13T06:52:42.536Z,23.30
2018-01-13T06:55:08.497Z,22.60
2018-01-13T06:57:34.480Z,23.80
2018-01-13T07:00:00.391Z,23.00
2018-01-13T07:02:26.334Z,23.57
2018-01-13T07:04:52.993Z,23.40
2018-01-13T07:07:18.916Z,22.73
2018-01-13T07:09:44.837Z,23.90
2018-01-13T07:12:10.781Z,24.63
2018-01-13T07:14:36.749Z,24.47
2018-01-13T07:17:02.652Z,25.30
2018-01-13T07:19:28.572Z,26.30
2018-01-13T07:21:54.518Z,21.60
2018-01-13T07:24:21.207Z,23.57
2018-01-13T07:26:47.138Z,23.37
2018-01-13T07:29:13.054Z,26.07
2018-01-13T07:31:38.958Z,22.13
2018-01-13T07:34:04.955Z,23.67
2018-01-13T07:36:30.854Z,23.30
2018-01-13T07:38:57.544Z,22.70
2018-01-13T07:41:23.484Z,23.60
2018-01-13T07:43:49.478Z,23.97
2018-01-13T07:46:15.395Z,22.73
2018-01-13T07:48:42.298Z,23.73
2018-01-13T07:51:08.969Z,22.23
2018-01-13T07:53:34.863Z,23.20
2018-01-13T07:56:01.852Z,23.33
2018-01-13T07:58:27.766Z,22.10
2018-01-13T08:00:53.711Z,22.60
2018-01-13T08:03:19.943Z,22.40
2018-01-13T08:05:45.946Z,21.80
2018-01-13T08:08:11.886Z,22.27
2018-01-13T08:10:37.819Z,21.13
2018-01-13T08:13:03.739Z,22.73
2018-01-13T08:15:29.681Z,22.60
2018-01-13T08:17:55.618Z,31.20
2018-01-13T08:20:21.538Z,28.83
2018-01-13T08:22:47.459Z,24.60
2018-01-13T08:25:14.071Z,23.43
2018-01-13T08:27:40.728Z,23.40
2018-01-13T08:30:06.710Z,22.57
2018-01-13T08:32:33.634Z,24.10
2018-01-13T08:35:00.196Z,25.50
2018-01-13T08:37:26.675Z,32.67
2018-01-13T08:39:52.596Z,36.37
2018-01-13T08:42:18.504Z,24.77
2018-01-13T08:44:44.475Z,24.07
2018-01-13T08:47:10.383Z,23.93
2018-01-13T08:49:36.302Z,26.50
2018-01-13T08:52:02.413Z,27.53
2018-01-13T08:54:28.416Z,23.53
2018-01-13T08:56:55.514Z,40.67
2018-01-13T08:59:21.611Z,26.90
2018-01-13T09:01:50.444Z,26.40
2018-01-13T09:04:17.468Z,24.20
2018-01-13T09:06:43.513Z,23.30
2018-01-13T09:09:09.437Z,25.83
2018-01-13T09:11:35.496Z,24.83
2018-01-13T09:14:01.455Z,24.47
2018-01-13T09:16:27.499Z,24.63
2018-01-13T09:18:53.558Z,25.10
2018-01-13T09:21:21.019Z,30.27
2018-01-13T09:23:47.869Z,23.70
2018-01-13T09:26:13.875Z,34.40
2018-01-13T09:28:39.874Z,23.70
2018-01-13T09:31:05.841Z,25.80
2018-01-13T09:33:31.877Z,22.40
2018-01-13T09:35:58.654Z,22.93
2018-01-13T09:38:25.279Z,21.77
2018-01-13T09:40:52.115Z,24.20
2018-01-13T09:43:22.150Z,22.67
2018-01-13T09:48:19.455Z,22.57
2018-01-13T09:50:45.406Z,20.53
2018-01-13T09:53:11.379Z,20.63
2018-01-13T09:55:38.145Z,20.50
2018-01-13T09:58:04.151Z,20.30
2018-01-13T10:00:30.382Z,20.70
2018-01-13T10:02:57.254Z,21.90
2018-01-13T10:05:23.328Z,21.70
2018-01-13T10:07:52.148Z,19.63
2018-01-13T10:10:19.979Z,21.80
2018-01-13T10:12:46.204Z,20.33
2018-01-13T10:15:15.595Z,23.03
2018-01-13T10:17:41.840Z,19.17
2018-01-13T10:20:07.775Z,17.73
2018-01-13T10:22:34.112Z,19.73
2018-01-13T10:25:00.153Z,21.43
2018-01-13T10:27:28.845Z,21.97
2018-01-13T10:29:54.787Z,18.00
2018-01-13T10:32:20.770Z,19.77
2018-01-13T10:34:47.321Z,20.43
2018-01-13T10:37:13.882Z,18.10
2018-01-13T10:39:40.110Z,19.07
2018-01-13T10:42:06.110Z,20.17
2018-01-13T10:44:33.100Z,20.10
2018-01-13T10:46:59.800Z,23.07
2018-01-13T10:49:26.629Z,22.20
2018-01-13T10:51:53.578Z,20.00
2018-01-13T10:54:19.622Z,18.30
2018-01-13T10:56:45.490Z,20.17
2018-01-13T10:59:11.415Z,16.70
2018-01-13T11:01:38.335Z,19.23
2018-01-13T11:04:04.342Z,16.13
2018-01-13T11:06:30.350Z,18.13
2018-01-13T11:08:58.069Z,16.87
2018-01-13T11:11:24.016Z,17.20
2018-01-13T11:13:50.758Z,18.83
2018-01-13T11:16:18.418Z,18.70
2018-01-13T11:18:45.096Z,16.63
2018-01-13T11:21:11.080Z,17.43
2018-01-13T11:23:37.014Z,19.50
2018-01-13T11:26:03.098Z,18.00
2018-01-13T11:28:29.110Z,17.23
2018-01-13T11:30:55.071Z,16.20
2018-01-13T11:33:21.937Z,16.40
2018-01-13T11:35:49.526Z,17.97
2018-01-13T11:38:15.622Z,19.70
2018-01-13T11:40:41.617Z,19.13
2018-01-13T11:43:08.354Z,18.60
2018-01-13T11:45:35.238Z,18.37
2018-01-13T11:48:01.188Z,20.10
2018-01-13T11:50:27.920Z,18.17
2018-01-13T11:52:53.847Z,16.83
2018-01-13T11:55:20.251Z,17.93
2018-01-13T11:57:47.220Z,18.40
2018-01-13T12:00:17.445Z,19.30
2018-01-13T12:02:47.076Z,19.10
2018-01-13T12:05:13.034Z,19.00
2018-01-13T12:07:39.666Z,19.20
2018-01-13T12:10:06.244Z,18.63
2018-01-13T12:12:32.237Z,20.10
2018-01-13T12:14:59.575Z,20.57
2018-01-13T12:17:25.534Z,19.40
2018-01-13T12:19:52.343Z,24.10
2018-01-13T12:22:19.285Z,18.33
2018-01-13T12:24:45.210Z,18.30
2018-01-13T12:27:12.662Z,18.00
2018-01-13T12:29:39.353Z,17.30
2018-01-13T12:32:05.444Z,19.90
2018-01-13T12:34:31.382Z,16.97
2018-01-13T12:36:57.367Z,19.10
2018-01-13T12:39:25.652Z,18.00
2018-01-13T12:41:53.202Z,19.40
2018-01-13T12:44:19.173Z,19.90
2018-01-13T12:46:45.144Z,18.80
2018-01-13T12:49:11.070Z,19.17
2018-01-13T12:51:39.766Z,21.63
2018-01-13T12:54:06.032Z,18.50
2018-01-13T12:56:32.951Z,18.43
2018-01-13T12:58:58.930Z,20.50
2018-01-13T13:01:24.825Z,19.50
2018-01-13T13:03:50.747Z,20.70
2018-01-13T13:06:18.504Z,20.83
2018-01-13T13:08:44.489Z,21.50
2018-01-13T13:11:10.937Z,18.80
2018-01-13T13:13:38.359Z,19.80
2018-01-13T13:16:04.420Z,20.47
2018-01-13T13:18:31.172Z,20.00
2018-01-13T13:20:57.126Z,19.93
2018-01-13T13:25:54.852Z,19.77
2018-01-13T13:28:20.814Z,21.33
2018-01-13T13:30:47.597Z,20.80
2018-01-13T13:33:16.031Z,21.03
2018-01-13T13:35:42.695Z,20.00
2018-01-13T13:38:11.218Z,19.63
2018-01-13T13:40:37.158Z,19.37
2018-01-13T13:43:04.139Z,20.67
2018-01-13T13:45:30.613Z,20.63
2018-01-13T13:47:57.191Z,20.40
2018-01-13T13:50:23.197Z,19.40
2018-01-13T13:52:49.887Z,19.90
2018-01-13T13:55:16.531Z,20.40
2018-01-13T13:57:43.470Z,20.17
2018-01-13T14:00:10.742Z,17.20
2018-01-13T14:02:37.542Z,19.00
2018-01-13T14:05:03.909Z,19.30
2018-01-13T14:07:30.902Z,18.23
2018-01-13T14:10:01.148Z,20.23
2018-01-13T14:12:24.970Z,19.10
2018-01-13T14:14:51.435Z,19.30
2018-01-13T14:17:17.401Z,19.97
2018-01-13T14:19:44.769Z,20.73
2018-01-13T14:22:11.538Z,19.50
2018-01-13T14:24:38.130Z,18.27
2018-01-13T14:27:04.379Z,18.00
2018-01-13T14:29:32.863Z,20.10
2018-01-13T14:32:01.754Z,19.30
2018-01-13T14:34:30.802Z,16.93
2018-01-13T14:36:56.754Z,17.17
2018-01-13T14:39:23.269Z,17.00
2018-01-13T14:41:49.918Z,17.73
2018-01-13T14:44:16.078Z,15.80
2018-01-13T14:46:43.557Z,18.03
2018-01-13T14:49:10.022Z,16.00
2018-01-13T14:54:07.330Z,18.17
2018-01-13T14:56:34.902Z,17.80
2018-01-13T14:59:04.709Z,18.50
2018-01-13T15:01:30.702Z,17.30
2018-01-13T15:03:57.371Z,21.50
2018-01-13T15:06:25.352Z,18.70
2018-01-13T15:08:52.838Z,19.07
2018-01-13T15:11:22.570Z,17.70
2018-01-13T15:13:48.563Z,17.70
2018-01-13T15:16:14.493Z,18.10
2018-01-13T15:18:40.425Z,17.70
2018-01-13T15:21:06.691Z,16.87
2018-01-13T15:23:32.737Z,16.10
2018-01-13T15:25:59.254Z,15.93
2018-01-13T15:28:25.826Z,16.67
2018-01-13T15:30:52.509Z,15.27
2018-01-13T15:33:20.111Z,15.77
2018-01-13T15:35:46.749Z,16.30
2018-01-13T15:38:12.974Z,16.80
2018-01-13T15:40:41.755Z,17.90
2018-01-13T15:43:07.906Z,15.40
2018-01-13T15:45:34.771Z,18.13
2018-01-13T15:48:04.957Z,18.57
2018-01-13T15:50:30.897Z,18.37
2018-01-13T15:52:56.827Z,17.37
2018-01-13T15:55:25.167Z,18.20
2018-01-13T15:57:51.523Z,18.10
2018-01-13T16:00:19.876Z,18.43
2018-01-13T16:02:46.558Z,17.63
2018-01-13T16:05:13.466Z,17.10
2018-01-13T16:07:39.429Z,22.97
2018-01-13T16:10:05.964Z,20.40
2018-01-13T16:12:34.707Z,18.60
2018-01-13T16:15:00.907Z,17.73
2018-01-13T16:17:29.246Z,20.60
2018-01-13T16:19:57.067Z,20.07
2018-01-13T16:22:25.107Z,21.30
2018-01-13T16:24:52.057Z,19.03
2018-01-13T16:27:18.838Z,18.17
2018-01-13T16:29:44.797Z,19.90
2018-01-13T16:32:10.873Z,18.07
2018-01-13T16:34:37.568Z,19.90
2018-01-13T16:37:05.068Z,20.97
2018-01-13T16:39:31.994Z,20.77
2018-01-13T16:41:58.254Z,19.30
2018-01-13T16:44:26.901Z,18.27
2018-01-13T16:46:52.887Z,18.40
2018-01-13T16:49:19.247Z,18.90
2018-01-13T16:51:46.218Z,19.80
2018-01-13T16:54:12.759Z,19.57
2018-01-13T16:56:39.033Z,21.10
2018-01-13T16:59:06.051Z,20.13
2018-01-13T17:01:33.163Z,18.77
2018-01-13T17:04:02.582Z,20.63
2018-01-13T17:06:29.714Z,19.40
2018-01-13T17:08:57.278Z,28.03
2018-01-13T17:11:23.274Z,20.67
2018-01-13T17:13:49.304Z,19.50
2018-01-13T17:16:15.306Z,20.93
2018-01-13T17:18:41.524Z,19.10
2018-01-13T17:21:07.543Z,21.70
2018-01-13T17:23:34.574Z,20.50
2018-01-13T17:26:00.967Z,20.20
2018-01-13T17:28:27.947Z,18.73
2018-01-13T17:33:30.798Z,19.93
2018-01-13T17:35:57.831Z,23.13
2018-01-13T17:38:26.098Z,25.57
2018-01-13T17:40:52.620Z,22.13
2018-01-13T17:43:18.583Z,19.63
2018-01-13T17:50:55.023Z,19.63
2018-01-13T17:55:53.386Z,19.60
2018-01-13T17:58:22.276Z,18.53
2018-01-13T18:05:52.401Z,20.07
2018-01-13T18:08:19.021Z,18.83
2018-01-13T18:13:18.587Z,17.93
2018-01-13T18:15:44.761Z,20.30
2018-01-13T18:18:12.489Z,20.77
2018-01-13T18:23:12.416Z,19.90
2018-01-13T18:25:40.883Z,19.47
2018-01-13T18:28:08.731Z,21.40
2018-01-13T18:30:36.229Z,18.80
2018-01-13T18:33:07.582Z,19.40
2018-01-13T18:35:34.379Z,18.17
2018-01-13T18:38:03.591Z,19.60
2018-01-13T18:40:31.885Z,18.33
2018-01-13T18:42:58.773Z,17.97
2018-01-13T18:45:24.911Z,20.57
2018-01-13T18:47:55.220Z,18.73
2018-01-13T18:52:57.998Z,17.17
2018-01-13T18:55:25.524Z,17.10
2018-01-13T19:00:25.231Z,17.77
2018-01-13T19:02:52.796Z,15.17
2018-01-13T19:05:25.018Z,18.43
2018-01-13T19:07:52.328Z,17.93
2018-01-13T19:10:20.493Z,16.10
2018-01-13T19:12:47.548Z,15.90
2018-01-13T19:15:13.618Z,17.70
2018-01-13T19:17:40.621Z,18.57
2018-01-13T19:20:08.599Z,16.70
2018-01-13T19:22:37.168Z,17.10
2018-01-13T19:25:06.557Z,16.67
2018-01-13T19:27:35.259Z,15.97
2018-01-13T19:30:03.895Z,17.73
2018-01-13T19:32:31.212Z,20.47
2018-01-13T19:34:57.828Z,18.07
2018-01-13T19:37:27.553Z,18.27
2018-01-13T19:39:57.147Z,19.00
2018-01-13T19:42:24.039Z,16.37
2018-01-13T19:44:50.124Z,16.93
2018-01-13T19:47:17.053Z,16.30
2018-01-13T19:49:44.926Z,15.67
2018-01-13T19:52:11.827Z,15.10
2018-01-13T19:54:37.927Z,15.40
2018-01-13T19:57:05.124Z,14.37
2018-01-13T19:59:31.519Z,18.30
2018-01-13T20:02:02.120Z,16.47
2018-01-13T20:04:28.979Z,18.73
2018-01-13T20:06:56.657Z,16.13
2018-01-13T20:09:22.723Z,16.47
2018-01-13T20:11:51.418Z,15.90
2018-01-13T20:14:17.478Z,17.73
2018-01-13T20:16:43.788Z,18.30
2018-01-13T20:19:12.157Z,17.20
2018-01-13T20:21:38.233Z,18.17
2018-01-13T20:26:36.496Z,15.23
2018-01-13T20:29:02.745Z,14.83
2018-01-13T20:31:29.360Z,16.60
2018-01-13T20:33:55.875Z,16.57
2018-01-13T20:38:53.276Z,16.13
2018-01-13T20:43:52.839Z,20.77
2018-01-13T20:46:19.597Z,31.87
2018-01-13T20:48:45.628Z,17.63
2018-01-13T20:51:12.501Z,21.00
2018-01-13T20:53:39.599Z,18.87
2018-01-13T20:56:05.911Z,18.53
2018-01-13T20:58:32.486Z,17.57
2018-01-13T21:01:00.072Z,16.83
2018-01-13T21:03:27.595Z,16.50
2018-01-13T21:05:56.714Z,17.60
2018-01-13T21:08:23.106Z,16.50
2018-01-13T21:10:50.800Z,17.10
2018-01-13T21:13:18.948Z,17.87
2018-01-13T21:15:45.283Z,19.30
2018-01-13T21:18:12.218Z,19.47
2018-01-13T21:23:09.179Z,16.30
2018-01-13T21:25:36.469Z,19.00
2018-01-13T21:28:05.358Z,17.03
2018-01-13T21:30:33.986Z,17.10
2018-01-13T21:35:32.209Z,17.33
2018-01-13T21:38:00.144Z,17.03
2018-01-13T21:40:27.120Z,15.60
2018-01-13T21:42:53.354Z,16.47
2018-01-13T21:50:26.251Z,14.47
2018-01-13T21:52:52.742Z,17.40
2018-01-13T21:55:20.157Z,16.37
2018-01-13T21:57:48.616Z,16.20
2018-01-13T22:00:14.710Z,15.27
2018-01-13T22:02:40.966Z,16.30
2018-01-13T22:05:09.395Z,17.90
2018-01-13T22:07:36.952Z,18.10
2018-01-13T22:10:05.881Z,16.10
2018-01-13T22:12:32.681Z,17.83
2018-01-13T22:15:00.863Z,18.27
2018-01-13T22:17:29.576Z,16.90
2018-01-13T22:19:58.444Z,38.73
2018-01-13T22:22:30.383Z,26.40
2018-01-13T22:24:57.616Z,33.80
2018-01-13T22:29:55.854Z,20.30
2018-01-13T22:32:22.052Z,18.47
2018-01-13T22:34:50.083Z,17.50
2018-01-13T22:37:18.732Z,16.70
2018-01-13T22:39:45.154Z,17.73
2018-01-13T22:42:13.648Z,18.20
2018-01-13T22:44:40.351Z,18.60
2018-01-13T22:47:06.802Z,18.60
2018-01-13T22:49:32.991Z,17.07
2018-01-13T22:52:01.128Z,17.63
2018-01-13T22:54:27.221Z,17.83
2018-01-13T22:56:54.202Z,17.37
2018-01-13T22:59:20.167Z,18.00
2018-01-13T23:01:47.005Z,17.77
2018-01-13T23:04:17.094Z,17.90
2018-01-13T23:06:43.269Z,17.80
2018-01-13T23:09:09.458Z,18.20
2018-01-13T23:11:35.466Z,18.17
2018-01-13T23:14:01.442Z,17.10
2018-01-13T23:16:28.135Z,17.67
2018-01-13T23:18:55.135Z,19.10
2018-01-13T23:21:22.455Z,17.23
2018-01-13T23:23:48.406Z,18.27
2018-01-13T23:26:14.368Z,16.90
2018-01-13T23:28:41.343Z,18.40
2018-01-13T23:31:08.032Z,16.53
2018-01-13T23:33:33.987Z,16.70
2018-01-13T23:35:59.976Z,16.90
2018-01-13T23:38:26.997Z,17.87
2018-01-13T23:40:52.922Z,16.33
2018-01-13T23:43:19.072Z,16.43
2018-01-13T23:45:45.316Z,15.77
2018-01-13T23:48:11.196Z,16.97
2018-01-13T23:50:37.126Z,16.60
2018-01-13T23:53:04.779Z,14.40
2018-01-13T23:55:30.889Z,16.80
2018-01-13T23:57:56.821Z,16.90
